Time;durP1;ratioP1;P1;durP2;ratioP2;P2;SDS_P1;SDS_P2;PMS_P1;PMS_P2;Temp;Humidity;BMP_temperature;BMP_pressure;BME280_temperature;BME280_humidity;BME280_pressure;Samples;Min_cycle;Max_cycle;Signal;HPM_P1;HPM_P2
2023/10/06 00:00:39;;;;;;;;;;;;;;;;;;105840;309;15094;-35
2023/10/06 00:02:58;;;;;;;;;;;;;;;;;;105885;309;15097;-34
2023/10/06 00:05:24;;;;;;;;;;;;;;;;;;105858;309;15103;-32
2023/10/06 00:07:50;;;;;;;;;;;;;;;;;;105815;309;15244;-35
2023/10/06 00:10:20;;;;;;;;;;;;;;;;;;105855;309;15058;-34
2023/10/06 00:12:47;;;;;;;;;;;;;;;;;;105827;309;15471;-31
2023/10/06 00:15:14;;;;;;;;;;;;;;;;;;105816;309;15247;-31
2023/10/06 00:17:39;;;;;;;;;;;;;;;;;;105949;309;15107;-30
2023/10/06 00:20:06;;;;;;;;;;;;;;;;;;105839;309;13406;-32
2023/10/06 00:22:31;;;;;;;;;;;;;;;;;;105805;309;15206;-30
2023/10/06 00:24:59;;;;;;;;;;;;;;;;;;105895;309;15455;-35
2023/10/06 00:27:29;;;;;;;;;;;;;;;;;;105941;309;15100;-32
2023/10/06 00:29:54;;;;;;;;;;;;;;;;;;105863;309;15109;-34
2023/10/06 00:32:23;;;;;;;;;;;;;;;;;;105781;309;15069;-34
2023/10/06 00:34:48;;;;;;;;;;;;;;;;;;105932;309;15088;-31
2023/10/06 00:37:14;;;;;;;;;;;;;;;;;;105883;309;15097;-36
2023/10/06 00:39:39;;;;;;;;;;;;;;;;;;105821;309;15167;-35
2023/10/06 00:42:06;;;;;;;;;;;;;;;;;;105900;309;15059;-31
2023/10/06 00:44:31;;;;;;;;;;;;;;;;;;105917;309;15250;-37
2023/10/06 00:47:05;;;;;;;;;;;;;;;;;;105856;309;15277;-30
2023/10/06 00:49:30;;;;;;;;;;;;;;;;;;105812;309;15097;-31
2023/10/06 00:51:56;;;;;;;;;;;;;;;;;;105856;309;15085;-34
2023/10/06 00:54:24;;;;;;;;;;;;;;;;;;105885;309;15097;-35
2023/10/06 00:56:50;;;;;;;;;;;;;;;;;;105756;309;15033;-35
2023/10/06 00:59:16;;;;;;;;;;;;;;;;;;105906;309;15100;-34
2023/10/06 01:01:42;;;;;;;;;;;;;;;;;;105804;309;15196;-31
2023/10/06 01:04:16;;;;;;;;;;;;;;;;;;105898;309;15132;-34
2023/10/06 01:06:42;;;;;;;;;;;;;;;;;;105914;309;15024;-34
2023/10/06 01:09:15;;;;;;;;;;;;;;;;;;105820;309;15237;-35
2023/10/06 01:11:40;;;;;;;;;;;;;;;;;;105914;309;15168;-34
2023/10/06 01:14:06;;;;;;;;;;;;;;;;;;105869;309;15132;-32
2023/10/06 01:16:37;;;;;;;;;;;;;;;;;;105878;309;15209;-31
2023/10/06 01:21:40;;;;;;;;;;;;;;;;;;105869;309;15062;-36
2023/10/06 01:24:11;;;;;;;;;;;;;;;;;;105816;309;15128;-36
2023/10/06 01:26:41;;;;;;;;;;;;;;;;;;105912;309;15301;-34
2023/10/06 01:29:06;;;;;;;;;;;;;;;;;;105919;309;15190;-31
2023/10/06 01:31:33;;;;;;;;;;;;;;;;;;105831;309;15218;-34
2023/10/06 01:33:59;;;;;;;;;;;;;;;;;;105857;309;15059;-34
2023/10/06 01:36:25;;;;;;;;;;;;;;;;;;105939;309;15100;-34
2023/10/06 01:38:50;;;;;;;;;;;;;;;;;;105926;309;15069;-34
2023/10/06 01:41:15;;;;;;;;;;;;;;;;;;105849;309;15250;-34
2023/10/06 01:43:40;;;;;;;;;;;;;;;;;;105891;309;15110;-37
2023/10/06 01:46:08;;;;;;;;;;;;;;;;;;105833;309;15097;-34
2023/10/06 01:48:34;;;;;;;;;;;;;;;;;;105768;309;15167;-35
2023/10/06 01:50:59;;;;;;;;;;;;;;;;;;105908;309;15097;-38
2023/10/06 02:41:32;;;;;;;;;;;;;;;;;;2;576126230;576126230;31
2023/10/06 02:50:33;;;;;;;;;;;;;;;;;;2;540148878;540148878;-43
2023/10/06 03:00:50;;;;;;;;;;;;;;;;;;3102;309;603166096;-33
2023/10/06 03:10:27;;;;;;;;;;;;;;;;;;2;576161986;576161986;-31
2023/10/06 03:19:32;;;;;;;;;;;;;;;;;;2900;309;540151258;-35
2023/10/06 03:29:46;;;;;;;;;;;;;;;;;;2429;310;603171332;-35
2023/10/06 03:39:28;;;;;;;;;;;;;;;;;;2;576161355;576161355;-35
2023/10/06 03:48:31;;;;;;;;;;;;;;;;;;2;540152514;540152514;-32
2023/10/06 03:58:36;;;;;;;;;;;;;;;;;;1236;311;603167645;-32
2023/10/06 04:08:20;;;;;;;;;;;;;;;;;;3307;311;576163306;-35
2023/10/06 04:17:22;;;;;;;;;;;;;;;;;;1296;311;540149834;-32
2023/10/06 04:27:40;;;;;;;;;;;;;;;;;;3562;311;612170490;-33
2023/10/06 04:37:22;;;;;;;;;;;;;;;;;;3461;311;576162387;-32
2023/10/06 04:46:26;;;;;;;;;;;;;;;;;;2869;310;540151815;-36
2023/10/06 04:56:43;;;;;;;;;;;;;;;;;;3490;310;612170066;-36
2023/10/06 05:06:24;;;;;;;;;;;;;;;;;;3248;310;576162493;-32
2023/10/06 05:15:30;;;;;;;;;;;;;;;;;;3476;310;540154775;-31
2023/10/06 05:25:47;;;;;;;;;;;;;;;;;;3266;310;612169738;-31
2023/10/06 05:35:29;;;;;;;;;;;;;;;;;;3559;311;576162604;-35
2023/10/06 05:44:33;;;;;;;;;;;;;;;;;;2183;311;540150364;-35
2023/10/06 05:54:50;;;;;;;;;;;;;;;;;;3292;310;612171117;-36
2023/10/06 06:04:34;;;;;;;;;;;;;;;;;;3529;311;576162442;-36
2023/10/06 06:13:36;;;;;;;;;;;;;;;;;;1483;311;540151595;-32
2023/10/06 06:23:55;;;;;;;;;;;;;;;;;;3451;311;612169948;-36
2023/10/06 06:33:35;;;;;;;;;;;;;;;;;;2614;311;576158550;-36
2023/10/06 06:42:40;;;;;;;;;;;;;;;;;;3199;311;540154505;-36
2023/10/06 06:52:57;;;;;;;;;;;;;;;;;;3161;311;612170884;-36
2023/10/06 07:02:38;;;;;;;;;;;;;;;;;;3281;310;576163750;-31
2023/10/06 07:11:44;;;;;;;;;;;;;;;;;;3554;311;540154245;-31
2023/10/06 07:22:00;;;;;;;;;;;;;;;;;;2879;311;612168183;-36
2023/10/06 07:31:42;;;;;;;;;;;;;;;;;;3559;311;576160154;-36
2023/10/06 07:40:47;;;;;;;;;;;;;;;;;;3559;311;540150371;-35
2023/10/06 07:51:04;;;;;;;;;;;;;;;;;;3168;311;612173062;-33
2023/10/06 08:00:45;;;;;;;;;;;;;;;;;;3451;311;576161053;-33
2023/10/06 08:09:51;;;;;;;;;;;;;;;;;;3561;311;540151440;-37
2023/10/06 08:20:12;;;;;;;;;;;;;;;;;;2720;310;612172228;-33
2023/10/06 08:29:51;;;;;;;;;;;;;;;;;;367;1317;576160682;-32
2023/10/06 08:38:54;;;;;;;;;;;;;;;;;;1640;310;540148077;-33
2023/10/06 08:49:11;;;;;;;;;;;;;;;;;;3310;310;612171699;-35
2023/10/06 08:58:53;;;;;;;;;;;;;;;;;;3354;310;576157669;-32
2023/10/06 09:07:57;;;;;;;;;;;;;;;;;;2979;310;540151328;-32
2023/10/06 09:18:17;;;;;;;;;;;;;;;;;;3464;310;612169868;-33
2023/10/06 09:27:58;;;;;;;;;;;;;;;;;;1189;310;576163277;-35
2023/10/06 09:37:01;;;;;;;;;;;;;;;;;;1801;310;540153108;-31
2023/10/06 09:47:18;;;;;;;;;;;;;;;;;;3565;310;612170687;-35
2023/10/06 09:56:59;;;;;;;;;;;;;;;;;;3149;308;576160752;-36
2023/10/06 10:06:04;;;;;;;;;;;;;;;;;;3553;308;540148839;-33
2023/10/06 10:16:25;;;;;;;;;;;;;;;;;;3478;308;612169407;-32
2023/10/06 10:26:03;;;;;;;;;;;;;;;;;;612;1317;576161165;-36
2023/10/06 10:35:14;;;;;;;;;;;;;;;;;;3226;309;540150452;-32
2023/10/06 10:45:26;;;;;;;;;;;;;;;;;;2;612172353;612172353;-35
2023/10/06 10:55:12;;;;;;;;;;;;;;;;;;3428;308;576161929;-31
2023/10/06 11:04:14;;;;;;;;;;;;;;;;;;2;540150691;540150691;-32
2023/10/06 11:14:30;;;;;;;;;;;;;;;;;;2577;308;612171155;-36
2023/10/06 11:24:13;;;;;;;;;;;;;;;;;;3150;310;576164500;-36
2023/10/06 11:33:19;;;;;;;;;;;;;;;;;;2483;308;540150187;-32
2023/10/06 11:43:33;;;;;;;;;;;;;;;;;;1242;308;612172447;-31
2023/10/06 11:53:15;;;;;;;;;;;;;;;;;;3555;310;576159600;-36
2023/10/06 12:02:21;;;;;;;;;;;;;;;;;;3540;310;540152657;-36
2023/10/06 12:12:40;;;;;;;;;;;;;;;;;;2518;308;612175530;-35
2023/10/06 12:22:18;;;;;;;;;;;;;;;;;;1599;308;576164323;-32
2023/10/06 12:31:23;;;;;;;;;;;;;;;;;;3558;308;540151646;-35
2023/10/06 12:41:46;;;;;;;;;;;;;;;;;;3548;308;612172879;-31
2023/10/06 12:51:22;;;;;;;;;;;;;;;;;;2;576164008;576164008;-32
2023/10/06 13:00:28;;;;;;;;;;;;;;;;;;3461;308;540150123;-36
2023/10/06 13:10:45;;;;;;;;;;;;;;;;;;3260;308;612175437;-33
2023/10/06 13:20:26;;;;;;;;;;;;;;;;;;3472;308;576164215;-32
2023/10/06 13:29:32;;;;;;;;;;;;;;;;;;3468;308;540150415;-36
2023/10/06 13:39:48;;;;;;;;;;;;;;;;;;2667;308;612169472;-32
2023/10/06 13:49:29;;;;;;;;;;;;;;;;;;3553;308;576156845;-33
2023/10/06 14:31:37;;;;;;;;;;;;;;;;;;108786;300;106662;31
2023/10/06 14:54:30;;;;;;;;;;;;;;;;;;2;576159992;576159992;-35
2023/10/06 15:03:33;;;;;;;;;;;;;;;;;;1119;307;540151066;-31
2023/10/06 15:13:40;;;;;;;;;;;;;;;;;;2413;308;603167082;-31
2023/10/06 15:23:21;;;;;;;;;;;;;;;;;;3431;309;576163012;-31
2023/10/06 15:32:27;;;;;;;;;;;;;;;;;;3353;309;540148324;-31
2023/10/06 15:42:34;;;;;;;;;;;;;;;;;;3004;308;603166621;-35
2023/10/06 15:52:15;;;;;;;;;;;;;;;;;;3344;308;576161962;-34
2023/10/06 16:01:21;;;;;;;;;;;;;;;;;;2975;308;540152352;-31
2023/10/06 16:11:38;;;;;;;;;;;;;;;;;;3353;308;612169543;-34
2023/10/06 16:21:19;;;;;;;;;;;;;;;;;;3097;308;576166065;-34
2023/10/06 16:30:24;;;;;;;;;;;;;;;;;;3095;308;540151790;-31
2023/10/06 16:40:41;;;;;;;;;;;;;;;;;;3488;308;612171945;-31
2023/10/06 16:50:22;;;;;;;;;;;;;;;;;;3421;308;576162374;-34
2023/10/06 16:59:28;;;;;;;;;;;;;;;;;;3564;308;540153804;-31
2023/10/06 17:09:45;;;;;;;;;;;;;;;;;;3562;308;612170763;-31
2023/10/06 17:19:26;;;;;;;;;;;;;;;;;;3501;308;576159528;-35
2023/10/06 17:28:31;;;;;;;;;;;;;;;;;;3571;308;540151964;-32
2023/10/06 17:38:49;;;;;;;;;;;;;;;;;;3569;308;612172266;-31
2023/10/06 17:48:29;;;;;;;;;;;;;;;;;;3013;308;576160065;-35
2023/10/06 17:57:34;;;;;;;;;;;;;;;;;;3526;308;540150511;-30
2023/10/06 18:07:54;;;;;;;;;;;;;;;;;;3558;308;612172236;-35
2023/10/06 18:17:35;;;;;;;;;;;;;;;;;;1858;308;576161078;-31
2023/10/06 18:26:38;;;;;;;;;;;;;;;;;;1931;308;540152195;-31
2023/10/06 18:36:55;;;;;;;;;;;;;;;;;;3437;308;612173398;-34
2023/10/06 18:46:36;;;;;;;;;;;;;;;;;;3547;308;576159377;-34
2023/10/06 19:34:44;;;;;;;;;;;;;;;;;;108806;300;106601;31
2023/10/06 19:37:10;;;;;;;;;;;;;;;;;;104643;306;172180;-31
2023/10/06 19:47:38;;;;;;;;;;;;;;;;;;15397;306;603169010;-34
2023/10/06 19:57:20;;;;;;;;;;;;;;;;;;3524;307;576162980;-31
2023/10/06 20:06:24;;;;;;;;;;;;;;;;;;2548;307;540154137;-32
2023/10/06 20:16:33;;;;;;;;;;;;;;;;;;3253;307;603167044;-35
2023/10/06 20:26:13;;;;;;;;;;;;;;;;;;2923;307;576164512;-32
2023/10/06 20:35:18;;;;;;;;;;;;;;;;;;3572;307;540149620;-37
2023/10/06 20:45:27;;;;;;;;;;;;;;;;;;3571;307;603168556;-34
2023/10/06 20:55:09;;;;;;;;;;;;;;;;;;3568;307;576160025;-37
2023/10/06 21:04:14;;;;;;;;;;;;;;;;;;2569;307;540152655;-33
2023/10/06 21:14:30;;;;;;;;;;;;;;;;;;2901;307;612170192;-33
2023/10/06 21:24:11;;;;;;;;;;;;;;;;;;3471;307;576165226;-33
2023/10/06 21:33:16;;;;;;;;;;;;;;;;;;3568;307;540150723;-33
2023/10/06 21:43:34;;;;;;;;;;;;;;;;;;3510;307;612169448;-37
2023/10/06 21:53:15;;;;;;;;;;;;;;;;;;3477;307;576161362;-33
2023/10/06 22:02:21;;;;;;;;;;;;;;;;;;3336;307;540147804;-36
2023/10/06 22:12:37;;;;;;;;;;;;;;;;;;2824;307;612169365;-35
2023/10/06 22:22:18;;;;;;;;;;;;;;;;;;3569;307;576161788;-31
2023/10/06 22:31:23;;;;;;;;;;;;;;;;;;3396;307;540151738;-32
2023/10/06 22:41:41;;;;;;;;;;;;;;;;;;3568;307;612170912;-36
2023/10/06 22:51:22;;;;;;;;;;;;;;;;;;3240;307;576162755;-36
2023/10/06 23:00:28;;;;;;;;;;;;;;;;;;3400;307;540152663;-32
2023/10/06 23:10:44;;;;;;;;;;;;;;;;;;2378;307;612171020;-36
2023/10/06 23:20:25;;;;;;;;;;;;;;;;;;3556;307;576160252;-31
2023/10/06 23:29:30;;;;;;;;;;;;;;;;;;3402;307;540151750;-35
2023/10/06 23:39:49;;;;;;;;;;;;;;;;;;3427;307;612169994;-36
2023/10/06 23:49:30;;;;;;;;;;;;;;;;;;2194;307;576160358;-32
2023/10/06 23:58:34;;;;;;;;;;;;;;;;;;2654;307;540152173;-31
